Terminal Aerodrome Forecast
Issued by NWS

Home | Current Version | Previous Version | Text Only | Print | Product List | Glossary On
Versions: 1 2 3 4 5 6 7 8 9 10 11 12 13 14 15 16 17 18 19 20
400
FTUS41 KLWX 261128
TAFMTN
TAF
KMTN 261128Z 2612/2712 28008KT P6SM SCT200
     FM261300 30010G18KT P6SM BKN250
     FM261800 28008KT P6SM BKN250
     FM262300 VRB04KT P6SM SCT090 BKN200
     FM271000 04005KT 5SM -RA BKN025 OVC050=

USA.gov is the U.S. government's official web portal to all federal, state and local government web resources and services.